createdAt,value
2023-03-17T00:00:47.116Z,101152.06
2023-03-17T00:03:27.187Z,101150.38
2023-03-17T00:05:56.567Z,101148.03
2023-03-17T00:08:28.703Z,101150.13
2023-03-17T00:10:56.168Z,101146.94
2023-03-17T00:13:23.932Z,101135.34
2023-03-17T00:16:02.923Z,101144.22
2023-03-17T00:18:31.704Z,101142.13
2023-03-17T00:20:59.789Z,101143.50
2023-03-17T00:23:27.107Z,101152.31
2023-03-17T00:25:54.329Z,101154.22
2023-03-17T00:28:26.005Z,101148.47
2023-03-17T00:30:58.457Z,101143.97
2023-03-17T00:33:29.982Z,101134.44
2023-03-17T00:35:58.670Z,101133.97
2023-03-17T00:38:25.944Z,101125.28
2023-03-17T00:40:53.295Z,101124.38
2023-03-17T00:43:20.623Z,101114.44
2023-03-17T00:45:48.248Z,101119.78
2023-03-17T00:48:20.649Z,101108.69
2023-03-17T00:50:50.183Z,101102.97
2023-03-17T00:53:21.544Z,101098.41
2023-03-17T00:55:49.278Z,101098.03
2023-03-17T00:58:32.534Z,101096.13
2023-03-17T01:01:00.846Z,101079.56
2023-03-17T01:03:28.960Z,101072.16
2023-03-17T01:06:00.407Z,101065.63
2023-03-17T01:08:30.113Z,101080.31
2023-03-17T01:10:57.893Z,101077.09
2023-03-17T01:13:25.534Z,101074.22
2023-03-17T01:15:54.693Z,101081.63
2023-03-17T01:18:23.349Z,101075.75
2023-03-17T01:20:51.579Z,101076.44
2023-03-17T01:23:18.880Z,101072.28
2023-03-17T01:25:45.975Z,101063.63
2023-03-17T01:28:19.088Z,101060.13
2023-03-17T01:30:46.961Z,101062.84
2023-03-17T01:33:14.735Z,101051.41
2023-03-17T01:35:43.818Z,101053.25
2023-03-17T01:38:14.922Z,101056.38
2023-03-17T01:40:50.535Z,101047.91
2023-03-17T01:43:29.347Z,101052.63
2023-03-17T01:46:33.948Z,101043.06
2023-03-17T01:49:17.364Z,101039.06
2023-03-17T01:52:18.015Z,101033.78
2023-03-17T01:55:16.012Z,101034.19
2023-03-17T01:57:54.685Z,101034.41
2023-03-17T02:00:25.014Z,101027.03
2023-03-17T02:02:56.161Z,101016.53
2023-03-17T02:05:28.468Z,101012.13
2023-03-17T02:07:56.865Z,101011.50
2023-03-17T02:10:28.558Z,101008.50
2023-03-17T02:13:03.873Z,101000.72
2023-03-17T02:15:48.718Z,101017.41
2023-03-17T02:18:20.132Z,101012.66
2023-03-17T02:20:46.985Z,101010.81
2023-03-17T02:23:24.886Z,101009.00
2023-03-17T02:25:53.837Z,100998.44
2023-03-17T02:28:29.910Z,101005.84
2023-03-17T02:30:57.806Z,100998.28
2023-03-17T02:33:25.258Z,100992.13
2023-03-17T02:35:52.872Z,100991.50
2023-03-17T02:38:19.968Z,100989.16
2023-03-17T02:40:47.047Z,100986.31
2023-03-17T02:43:14.145Z,100986.00
2023-03-17T02:45:41.609Z,100972.84
2023-03-17T02:48:09.135Z,100974.03
2023-03-17T02:50:36.623Z,100981.38
2023-03-17T02:53:03.841Z,100972.38
2023-03-17T02:55:31.710Z,100969.50
2023-03-17T02:57:58.922Z,100973.50
2023-03-17T03:00:26.444Z,100975.81
2023-03-17T03:02:53.561Z,100970.81
2023-03-17T03:05:20.947Z,100971.81
2023-03-17T03:07:51.363Z,100970.56
2023-03-17T03:10:18.897Z,100971.84
2023-03-17T03:12:46.557Z,100971.34
2023-03-17T03:15:14.569Z,100972.72
2023-03-17T03:17:42.020Z,100971.16
2023-03-17T03:20:11.469Z,100979.22
2023-03-17T03:22:38.927Z,100980.78
2023-03-17T03:25:08.630Z,100984.72
2023-03-17T03:27:36.241Z,100988.13
2023-03-17T03:30:04.240Z,100990.94
2023-03-17T03:32:31.564Z,100997.03
2023-03-17T03:34:58.733Z,101003.47
2023-03-17T03:37:25.965Z,100998.59
2023-03-17T03:39:53.118Z,101007.16
2023-03-17T03:42:20.411Z,101000.97
2023-03-17T03:44:47.455Z,101003.44
2023-03-17T03:47:14.569Z,100995.03
2023-03-17T03:49:41.710Z,100995.63
2023-03-17T03:52:11.432Z,100987.19
2023-03-17T03:54:38.448Z,100981.38
2023-03-17T03:57:05.939Z,100988.31
2023-03-17T03:59:33.030Z,100990.22
2023-03-17T04:02:00.107Z,100993.00
2023-03-17T04:04:27.203Z,100985.50
2023-03-17T04:06:54.329Z,100989.72
2023-03-17T04:09:21.417Z,100989.53
2023-03-17T04:11:48.451Z,100986.53
2023-03-17T04:14:15.548Z,100986.75
2023-03-17T04:16:44.685Z,100984.44
2023-03-17T04:19:11.757Z,100981.63
2023-03-17T04:21:41.450Z,100973.00
2023-03-17T04:24:11.824Z,100975.69
2023-03-17T04:26:39.369Z,100970.69
2023-03-17T04:29:08.803Z,100969.78
2023-03-17T04:31:36.817Z,100960.72
2023-03-17T04:34:03.910Z,100949.66
2023-03-17T04:36:30.974Z,100941.31
2023-03-17T04:38:58.215Z,100938.38
2023-03-17T04:41:25.465Z,100934.47
2023-03-17T04:43:52.492Z,100933.94
2023-03-17T04:46:19.539Z,100935.69
2023-03-17T04:48:46.795Z,100947.84
2023-03-17T04:51:13.893Z,100955.56
2023-03-17T04:53:41.018Z,100950.84
2023-03-17T04:56:08.430Z,100957.66
2023-03-17T04:58:36.026Z,100959.25
2023-03-17T05:01:03.662Z,100958.94
2023-03-17T05:03:33.165Z,100952.84
2023-03-17T05:06:02.422Z,100949.94
2023-03-17T05:08:30.421Z,100944.16
2023-03-17T05:10:58.499Z,100956.56
2023-03-17T05:13:28.511Z,100949.19
2023-03-17T05:15:57.166Z,100948.41
2023-03-17T05:18:26.221Z,100948.47
2023-03-17T05:20:54.151Z,100946.59
2023-03-17T05:23:27.743Z,100931.75
2023-03-17T05:25:54.830Z,100919.47
2023-03-17T05:28:22.832Z,100912.91
2023-03-17T05:30:53.427Z,100916.13
2023-03-17T05:33:21.663Z,100923.81
2023-03-17T05:35:49.402Z,100936.34
2023-03-17T05:38:16.992Z,100936.31
2023-03-17T05:40:45.487Z,100937.91
2023-03-17T05:43:14.152Z,100935.69
2023-03-17T05:45:41.365Z,100938.16
2023-03-17T05:48:08.942Z,100937.75
2023-03-17T05:50:36.450Z,100936.56
2023-03-17T05:53:03.716Z,100929.09
2023-03-17T05:55:36.422Z,100936.50
2023-03-17T05:58:05.065Z,100948.13
2023-03-17T06:00:32.690Z,100951.78
2023-03-17T06:03:00.007Z,100947.38
2023-03-17T06:05:27.180Z,100947.53
2023-03-17T06:07:56.504Z,100955.88
2023-03-17T06:10:24.785Z,100946.69
2023-03-17T06:12:55.016Z,100931.44
2023-03-17T06:15:22.500Z,100932.56
2023-03-17T06:17:51.774Z,100924.38
2023-03-17T06:20:19.695Z,100920.06
2023-03-17T06:23:03.387Z,100923.56
2023-03-17T06:25:33.463Z,100915.28
2023-03-17T06:28:02.829Z,100923.09
2023-03-17T06:30:32.962Z,100927.75
2023-03-17T06:33:01.403Z,100930.63
2023-03-17T06:35:30.049Z,100933.38
2023-03-17T06:37:57.871Z,100933.94
2023-03-17T06:40:25.108Z,100925.56
2023-03-17T06:42:52.308Z,100924.09
2023-03-17T06:45:19.488Z,100921.19
2023-03-17T06:47:48.728Z,100918.84
2023-03-17T06:50:16.147Z,100915.88
2023-03-17T06:52:45.028Z,100920.88
2023-03-17T06:55:14.087Z,100914.84
2023-03-17T06:57:41.784Z,100923.41
2023-03-17T07:00:12.549Z,100900.63
2023-03-17T07:02:42.402Z,100898.63
2023-03-17T07:05:09.877Z,100908.50
2023-03-17T07:07:37.280Z,100909.16
2023-03-17T07:10:05.652Z,100913.25
2023-03-17T07:12:33.179Z,100905.38
2023-03-17T07:15:01.275Z,100906.59
2023-03-17T07:17:29.080Z,100904.97
2023-03-17T07:19:56.526Z,100898.50
2023-03-17T07:22:23.578Z,100896.53
2023-03-17T07:24:51.865Z,100885.69
2023-03-17T07:27:22.991Z,100877.28
2023-03-17T07:29:50.354Z,100877.97
2023-03-17T07:32:17.472Z,100875.22
2023-03-17T07:34:44.753Z,100875.41
2023-03-17T07:37:12.479Z,100877.63
2023-03-17T07:39:40.091Z,100858.47
2023-03-17T07:42:07.275Z,100839.13
2023-03-17T07:44:34.597Z,100844.44
2023-03-17T07:47:01.658Z,100853.03
2023-03-17T07:49:40.746Z,100868.09
2023-03-17T07:52:11.037Z,100842.50
2023-03-17T07:54:42.161Z,100833.66
2023-03-17T07:57:10.883Z,100852.19
2023-03-17T07:59:39.814Z,100852.16
2023-03-17T08:02:07.294Z,100862.06
2023-03-17T08:04:35.087Z,100874.50
2023-03-17T08:07:04.143Z,100850.47
2023-03-17T08:09:31.943Z,100851.09
2023-03-17T08:12:01.472Z,100863.44
2023-03-17T08:14:32.020Z,100858.00
2023-03-17T08:17:00.723Z,100844.94
2023-03-17T08:19:30.554Z,100852.38
2023-03-17T08:21:58.150Z,100847.59
2023-03-17T08:24:27.008Z,100842.88
2023-03-17T08:26:54.184Z,100849.53
2023-03-17T08:29:30.539Z,100844.41
2023-03-17T08:31:58.051Z,100836.50
2023-03-17T08:34:26.326Z,100839.81
2023-03-17T08:36:56.548Z,100837.09
2023-03-17T08:39:24.406Z,100822.38
2023-03-17T08:41:59.353Z,100817.81
2023-03-17T08:44:27.381Z,100820.47
2023-03-17T08:47:00.937Z,100819.63
2023-03-17T08:49:28.500Z,100815.69
2023-03-17T08:51:57.863Z,100805.38
2023-03-17T08:54:24.997Z,100811.09
2023-03-17T08:56:52.658Z,100801.66
2023-03-17T08:59:19.740Z,100799.13
2023-03-17T09:01:52.666Z,100795.03
2023-03-17T09:04:19.910Z,100800.09
2023-03-17T09:07:02.297Z,100798.44
2023-03-17T09:09:30.972Z,100794.41
2023-03-17T09:12:03.051Z,100786.19
2023-03-17T09:14:35.310Z,100782.25
2023-03-17T09:17:11.160Z,100780.69
2023-03-17T09:19:39.313Z,100792.22
2023-03-17T09:22:06.778Z,100781.59
2023-03-17T09:24:36.389Z,100787.34
2023-03-17T09:27:06.405Z,100781.13
2023-03-17T09:29:34.012Z,100780.19
2023-03-17T09:32:02.222Z,100777.50
2023-03-17T09:34:29.671Z,100785.84
2023-03-17T09:36:59.734Z,100784.75
2023-03-17T09:39:27.471Z,100778.91
2023-03-17T09:42:21.270Z,100790.63
2023-03-17T09:45:33.606Z,100773.31
2023-03-17T09:49:08.567Z,100765.09
2023-03-17T09:51:35.959Z,100779.34
2023-03-17T09:54:19.439Z,100778.22
2023-03-17T09:57:45.418Z,100767.19
2023-03-17T10:00:18.385Z,100778.00
2023-03-17T10:02:47.625Z,100782.72
2023-03-17T10:05:21.884Z,100769.16
2023-03-17T10:08:29.443Z,100763.28
2023-03-17T10:11:41.997Z,100750.81
2023-03-17T10:14:38.287Z,100760.78
2023-03-17T10:17:35.776Z,100760.34
2023-03-17T10:20:18.751Z,100768.13
2023-03-17T10:22:59.294Z,100764.41
2023-03-17T10:25:33.439Z,100764.28
2023-03-17T10:28:36.400Z,100771.75
2023-03-17T10:31:30.678Z,100765.59
2023-03-17T10:34:21.569Z,100760.00
2023-03-17T10:37:05.626Z,100762.66
2023-03-17T10:39:44.244Z,100768.31
2023-03-17T10:42:30.572Z,100760.28
2023-03-17T10:45:32.446Z,100746.41
2023-03-17T10:48:04.219Z,100738.81
2023-03-17T10:50:35.893Z,100753.22
2023-03-17T10:53:29.159Z,100743.41
2023-03-17T10:56:26.563Z,100752.59
2023-03-17T10:58:55.495Z,100734.38
2023-03-17T11:01:42.651Z,100730.38
2023-03-17T11:04:42.403Z,100736.03
2023-03-17T11:07:20.303Z,100731.38
2023-03-17T11:09:52.514Z,100722.91
2023-03-17T11:12:29.973Z,100721.63
2023-03-17T11:15:03.974Z,100722.16
2023-03-17T11:17:57.870Z,100708.22
2023-03-17T11:20:48.385Z,100712.09
2023-03-17T11:23:49.833Z,100711.28
2023-03-17T11:26:48.457Z,100712.75
2023-03-17T11:30:30.639Z,100708.00
2023-03-17T11:33:40.175Z,100705.88
2023-03-17T11:37:16.260Z,100707.47
2023-03-17T11:40:16.435Z,100712.81
2023-03-17T11:43:08.036Z,100703.16
2023-03-17T11:46:04.694Z,100701.53
2023-03-17T11:49:10.034Z,100703.72
2023-03-17T11:52:19.533Z,100697.53
2023-03-17T11:55:24.603Z,100691.97
2023-03-17T11:58:05.456Z,100689.06
2023-03-17T12:00:57.102Z,100688.88
2023-03-17T12:03:50.591Z,100690.19
2023-03-17T12:06:29.519Z,100681.13
2023-03-17T12:09:26.917Z,100674.88
2023-03-17T12:11:57.015Z,100678.41
2023-03-17T12:14:30.710Z,100680.69
2023-03-17T12:17:22.454Z,100673.72
2023-03-17T12:20:42.209Z,100666.28
2023-03-17T12:23:33.197Z,100662.25
2023-03-17T12:26:19.599Z,100662.50
2023-03-17T12:29:03.284Z,100672.44
2023-03-17T12:31:39.270Z,100660.38
2023-03-17T12:35:02.228Z,100667.91
2023-03-17T12:37:30.166Z,100658.69
2023-03-17T12:40:18.832Z,100659.56
2023-03-17T12:43:46.752Z,100662.69
2023-03-17T12:46:53.044Z,100651.53
2023-03-17T12:49:57.022Z,100650.69
2023-03-17T12:53:12.496Z,100646.66
2023-03-17T12:55:40.497Z,100643.81
2023-03-17T12:58:41.264Z,100639.81
2023-03-17T13:01:33.878Z,100625.41
2023-03-17T13:04:04.037Z,100620.25
2023-03-17T13:07:12.452Z,100630.75
2023-03-17T13:09:54.472Z,100621.41
2023-03-17T13:12:40.026Z,100614.34
2023-03-17T13:15:39.708Z,100619.56
2023-03-17T13:18:13.696Z,100614.84
2023-03-17T13:20:56.884Z,100619.66
2023-03-17T13:23:57.851Z,100617.22
2023-03-17T13:27:01.717Z,100620.94
2023-03-17T13:29:35.045Z,100615.19
2023-03-17T13:32:17.094Z,100612.72
2023-03-17T13:34:56.082Z,100613.78
2023-03-17T13:37:53.843Z,100605.78
2023-03-17T13:41:00.877Z,100615.63
2023-03-17T13:43:30.932Z,100605.09
2023-03-17T13:46:41.864Z,100600.19
2023-03-17T13:49:32.371Z,100603.81
2023-03-17T13:52:25.661Z,100598.09
2023-03-17T13:55:36.283Z,100619.38
2023-03-17T13:58:11.644Z,100608.81
2023-03-17T14:00:51.790Z,100612.44
2023-03-17T14:03:35.254Z,100615.44
2023-03-17T14:06:11.951Z,100610.88
2023-03-17T14:08:51.920Z,100608.16
2023-03-17T14:11:33.508Z,100604.78
2023-03-17T14:14:37.078Z,100590.34
2023-03-17T14:17:35.693Z,100583.31
2023-03-17T14:20:24.795Z,100589.09
2023-03-17T14:23:02.694Z,100603.66
2023-03-17T14:25:39.145Z,100609.84
2023-03-17T14:28:23.353Z,100599.13
2023-03-17T14:31:01.878Z,100581.84
2023-03-17T14:33:33.601Z,100584.03
2023-03-17T14:36:06.237Z,100584.56
2023-03-17T14:38:40.024Z,100570.66
2023-03-17T14:41:22.562Z,100565.63
2023-03-17T14:43:52.541Z,100565.97
2023-03-17T14:46:24.354Z,100565.50
2023-03-17T14:49:18.400Z,100553.09
2023-03-17T14:51:49.592Z,100552.66
2023-03-17T14:54:35.771Z,100546.72
2023-03-17T14:57:15.717Z,100550.22
2023-03-17T14:59:56.208Z,100545.00
2023-03-17T15:02:38.246Z,100548.69
2023-03-17T15:05:40.222Z,100551.97
2023-03-17T15:08:34.563Z,100549.97
2023-03-17T15:11:06.085Z,100537.25
2023-03-17T15:13:37.554Z,100540.41
2023-03-17T15:16:33.496Z,100537.22
2023-03-17T15:19:29.073Z,100535.13
2023-03-17T15:22:00.430Z,100527.00
2023-03-17T15:25:04.428Z,100530.19
2023-03-17T15:27:32.370Z,100519.34
2023-03-17T15:29:59.603Z,100512.84
2023-03-17T15:32:28.776Z,100509.16
2023-03-17T15:34:57.161Z,100510.38
2023-03-17T15:37:33.915Z,100505.16
2023-03-17T15:40:03.516Z,100507.72
2023-03-17T15:42:34.728Z,100498.16
2023-03-17T15:45:03.642Z,100501.16
2023-03-17T15:47:36.692Z,100494.69
2023-03-17T15:50:31.361Z,100494.63
2023-03-17T15:52:58.841Z,100489.47
2023-03-17T15:55:31.335Z,100504.13
2023-03-17T15:58:02.034Z,100505.28
2023-03-17T16:00:30.516Z,100501.75
2023-03-17T16:03:06.588Z,100501.34
2023-03-17T16:05:35.972Z,100493.97
2023-03-17T16:08:03.072Z,100502.38
2023-03-17T16:10:33.164Z,100493.84
2023-03-17T16:13:00.633Z,100497.59
2023-03-17T16:15:32.213Z,100508.38
2023-03-17T16:18:04.848Z,100505.19
2023-03-17T16:20:47.864Z,100514.44
2023-03-17T16:23:27.454Z,100510.81
2023-03-17T16:26:07.898Z,100512.50
2023-03-17T16:28:41.451Z,100513.50
2023-03-17T16:31:30.663Z,100514.16
2023-03-17T16:34:01.442Z,100506.81
2023-03-17T16:36:28.741Z,100503.09
2023-03-17T16:38:56.032Z,100508.09
2023-03-17T16:41:27.559Z,100504.53
2023-03-17T16:44:01.715Z,100500.25
2023-03-17T16:46:35.861Z,100496.38
2023-03-17T16:49:04.140Z,100500.44
2023-03-17T16:51:32.464Z,100495.03
2023-03-17T16:53:59.640Z,100489.25
2023-03-17T16:56:27.872Z,100489.94
2023-03-17T16:58:55.155Z,100500.84
2023-03-17T17:01:27.211Z,100497.50
2023-03-17T17:03:55.298Z,100496.94
2023-03-17T17:06:23.691Z,100501.00
2023-03-17T17:08:52.082Z,100495.75
2023-03-17T17:11:21.160Z,100500.47
2023-03-17T17:13:50.170Z,100495.81
2023-03-17T17:16:34.306Z,100496.00
2023-03-17T17:19:04.166Z,100499.94
2023-03-17T17:21:32.982Z,100503.31
2023-03-17T17:24:00.331Z,100506.88
2023-03-17T17:26:27.406Z,100506.75
2023-03-17T17:28:54.711Z,100506.59
2023-03-17T17:31:21.824Z,100499.41
2023-03-17T17:33:49.032Z,100501.50
2023-03-17T17:36:17.493Z,100500.41
2023-03-17T17:38:45.335Z,100502.19
2023-03-17T17:41:14.065Z,100504.94
2023-03-17T17:43:41.286Z,100506.75
2023-03-17T17:46:22.820Z,100509.06
2023-03-17T17:48:50.173Z,100503.81
2023-03-17T17:51:17.526Z,100500.91
2023-03-17T17:53:44.823Z,100519.78
2023-03-17T17:56:16.402Z,100516.09
2023-03-17T17:58:44.462Z,100517.88
2023-03-17T18:01:19.898Z,100522.84
2023-03-17T18:03:47.077Z,100514.97
2023-03-17T18:06:14.631Z,100512.22
2023-03-17T18:08:43.411Z,100505.69
2023-03-17T18:11:11.216Z,100509.16
2023-03-17T18:13:39.055Z,100512.69
2023-03-17T18:16:09.892Z,100510.34
2023-03-17T18:18:40.532Z,100507.81
2023-03-17T18:21:08.070Z,100504.72
2023-03-17T18:23:38.603Z,100507.22
2023-03-17T18:26:06.368Z,100502.47
2023-03-17T18:28:34.062Z,100503.78
2023-03-17T18:31:12.916Z,100503.94
2023-03-17T18:33:42.108Z,100507.19
2023-03-17T18:36:11.262Z,100498.63
2023-03-17T18:38:38.833Z,100498.63
2023-03-17T18:41:08.037Z,100493.16
2023-03-17T18:43:35.314Z,100484.75
2023-03-17T18:46:02.439Z,100486.53
2023-03-17T18:48:29.590Z,100481.94
2023-03-17T18:50:56.666Z,100489.50
2023-03-17T18:53:23.808Z,100479.59
2023-03-17T18:55:50.924Z,100475.84
2023-03-17T18:58:20.061Z,100477.25
2023-03-17T19:00:49.581Z,100472.22
2023-03-17T19:03:17.249Z,100478.34
2023-03-17T19:05:44.426Z,100479.94
2023-03-17T19:08:11.562Z,100476.44
2023-03-17T19:10:42.153Z,100464.56
2023-03-17T19:13:10.337Z,100467.22
2023-03-17T19:15:37.462Z,100460.63
2023-03-17T19:18:04.772Z,100461.66
2023-03-17T19:20:33.734Z,100457.31
2023-03-17T19:23:01.995Z,100459.28
2023-03-17T19:25:31.555Z,100459.06
2023-03-17T19:27:59.138Z,100454.13
2023-03-17T19:30:26.253Z,100459.13
2023-03-17T19:32:54.488Z,100453.78
2023-03-17T19:35:22.170Z,100460.75
2023-03-17T19:37:49.237Z,100446.91
2023-03-17T19:40:16.792Z,100460.53
2023-03-17T19:42:43.810Z,100461.38
2023-03-17T19:45:11.585Z,100462.59
2023-03-17T19:47:38.675Z,100467.56
2023-03-17T19:50:07.064Z,100463.50
2023-03-17T19:52:34.202Z,100474.94
2023-03-17T19:55:01.368Z,100470.31
2023-03-17T19:57:28.437Z,100472.16
2023-03-17T19:59:55.523Z,100465.44
2023-03-17T20:02:22.573Z,100479.59
2023-03-17T20:04:52.252Z,100478.34
2023-03-17T20:07:19.445Z,100483.97
2023-03-17T20:09:47.920Z,100483.16
2023-03-17T20:12:15.727Z,100484.34
2023-03-17T20:14:42.813Z,100487.34
2023-03-17T20:17:09.961Z,100492.00
2023-03-17T20:19:39.227Z,100495.03
2023-03-17T20:22:12.851Z,100492.34
2023-03-17T20:24:39.921Z,100490.56
2023-03-17T20:27:08.340Z,100496.28
2023-03-17T20:29:35.432Z,100494.16
2023-03-17T20:32:02.791Z,100497.31
2023-03-17T20:34:31.697Z,100486.91
2023-03-17T20:36:58.793Z,100489.34
2023-03-17T20:39:26.207Z,100483.09
2023-03-17T20:41:54.063Z,100490.19
2023-03-17T20:44:21.536Z,100480.28
2023-03-17T20:46:48.655Z,100483.22
2023-03-17T20:49:17.284Z,100476.69
2023-03-17T20:51:46.210Z,100484.72
2023-03-17T20:54:13.478Z,100480.41
2023-03-17T20:56:40.709Z,100477.31
2023-03-17T20:59:09.633Z,100469.38
2023-03-17T21:01:38.661Z,100472.47
2023-03-17T21:04:08.882Z,100474.44
2023-03-17T21:06:39.573Z,100473.03
2023-03-17T21:09:06.624Z,100469.44
2023-03-17T21:11:33.989Z,100462.91
2023-03-17T21:14:03.271Z,100476.00
2023-03-17T21:16:30.964Z,100472.94
2023-03-17T21:18:58.787Z,100481.97
2023-03-17T21:21:27.023Z,100478.50
2023-03-17T21:23:55.625Z,100470.44
2023-03-17T21:26:22.957Z,100480.81
2023-03-17T21:28:50.371Z,100480.28
2023-03-17T21:31:17.818Z,100466.88
2023-03-17T21:33:48.362Z,100476.47
2023-03-17T21:36:16.153Z,100469.53
2023-03-17T21:38:43.645Z,100465.63
2023-03-17T21:41:36.347Z,100470.56
2023-03-17T21:44:05.055Z,100472.97
2023-03-17T21:46:33.488Z,100470.34
2023-03-17T21:49:01.387Z,100474.97
2023-03-17T21:51:28.627Z,100473.66
2023-03-17T21:53:57.602Z,100474.88
2023-03-17T21:56:24.834Z,100473.91
2023-03-17T21:58:55.711Z,100465.53
2023-03-17T22:01:23.037Z,100472.97
2023-03-17T22:03:52.037Z,100463.75
2023-03-17T22:06:20.228Z,100462.31
2023-03-17T22:08:48.667Z,100468.88
2023-03-17T22:11:19.184Z,100472.47
2023-03-17T22:13:47.135Z,100471.47
2023-03-17T22:16:16.347Z,100460.59
2023-03-17T22:18:44.006Z,100458.66
2023-03-17T22:21:11.508Z,100451.94
2023-03-17T22:23:42.319Z,100452.84
2023-03-17T22:26:20.663Z,100455.81
2023-03-17T22:28:50.166Z,100454.31
2023-03-17T22:31:25.442Z,100453.66
2023-03-17T22:33:56.667Z,100444.50
2023-03-17T22:36:25.565Z,100450.38
2023-03-17T22:38:53.589Z,100459.97
2023-03-17T22:41:25.098Z,100456.97
2023-03-17T22:43:52.154Z,100455.19
2023-03-17T22:46:23.570Z,100451.50
2023-03-17T22:48:54.533Z,100453.69
2023-03-17T22:51:26.469Z,100454.59
2023-03-17T22:53:54.921Z,100453.91
2023-03-17T22:56:22.229Z,100447.00
2023-03-17T22:58:49.566Z,100436.47
2023-03-17T23:01:22.301Z,100437.28
2023-03-17T23:03:50.185Z,100439.47
2023-03-17T23:06:17.990Z,100432.06
2023-03-17T23:08:47.004Z,100441.78
2023-03-17T23:11:24.550Z,100441.94
2023-03-17T23:13:55.309Z,100435.94
2023-03-17T23:16:22.771Z,100439.16
2023-03-17T23:18:50.783Z,100434.25
2023-03-17T23:21:29.193Z,100447.09
2023-03-17T23:23:59.594Z,100438.53
2023-03-17T23:26:28.217Z,100442.06
2023-03-17T23:28:55.772Z,100437.41
2023-03-17T23:31:23.565Z,100438.25
2023-03-17T23:33:51.464Z,100434.47
2023-03-17T23:36:19.132Z,100427.56
2023-03-17T23:38:47.365Z,100426.97
2023-03-17T23:41:15.369Z,100415.84
2023-03-17T23:43:44.006Z,100417.88
2023-03-17T23:46:13.407Z,100414.41
2023-03-17T23:48:42.968Z,100418.56
2023-03-17T23:51:12.438Z,100415.75
2023-03-17T23:53:40.347Z,100415.03
2023-03-17T23:56:08.682Z,100416.53
2023-03-17T23:58:36.164Z,100421.81
